createdAt,value
2018-02-17T00:01:04.512Z,48.79
2018-02-17T00:02:13.585Z,48.22
2018-02-17T00:03:22.414Z,48.32
2018-02-17T00:04:31.236Z,48.13
2018-02-17T00:05:40.062Z,47.94
2018-02-17T00:06:48.887Z,48.41
2018-02-17T00:07:58.182Z,48.32
2018-02-17T00:09:07.007Z,49.26
2018-02-17T00:10:15.833Z,48.97
2018-02-17T00:11:24.660Z,48.69
2018-02-17T00:12:33.511Z,48.97
2018-02-17T00:13:42.314Z,49.07
2018-02-17T00:14:51.149Z,48.97
2018-02-17T00:16:00.254Z,49.07
2018-02-17T00:17:09.074Z,48.79
2018-02-17T00:18:17.900Z,48.97
2018-02-17T00:19:26.727Z,48.79
2018-02-17T00:20:35.554Z,48.6
2018-02-17T00:21:44.381Z,48.97
2018-02-17T00:22:53.487Z,48.32
2018-02-17T00:24:02.313Z,48.03
2018-02-17T00:25:11.140Z,47.85
2018-02-17T00:26:19.964Z,47.28
2018-02-17T00:27:28.786Z,47.85
2018-02-17T00:28:37.612Z,47.66
2018-02-17T00:29:46.435Z,47.09
2018-02-17T00:30:55.413Z,47.66
2018-02-17T00:32:04.238Z,46.8
2018-02-17T00:33:13.068Z,46.99
2018-02-17T00:34:21.891Z,47.09
2018-02-17T00:35:30.718Z,46.99
2018-02-17T00:36:39.820Z,47.47
2018-02-17T00:37:48.648Z,47.18
2018-02-17T00:38:57.750Z,46.99
2018-02-17T00:40:06.575Z,46.9
2018-02-17T00:41:15.403Z,47.66
2018-02-17T00:42:24.381Z,47.75
2018-02-17T00:43:33.202Z,48.03
2018-02-17T00:44:42.027Z,47.85
2018-02-17T00:45:51.129Z,47.66
2018-02-17T00:46:59.953Z,47.18
2018-02-17T00:48:09.178Z,48.03
2018-02-17T00:49:18.004Z,47.85
2018-02-17T00:50:26.829Z,48.22
2018-02-17T00:51:35.652Z,48.6
2018-02-17T00:52:44.478Z,48.03
2018-02-17T00:53:53.453Z,47.94
2018-02-17T00:55:02.279Z,47.75
2018-02-17T00:56:11.103Z,47.56
2018-02-17T00:57:19.929Z,47.56
2018-02-17T00:58:28.755Z,47.75
2018-02-17T00:59:37.784Z,47.18
2018-02-17T01:00:46.893Z,47.18
2018-02-17T01:01:55.718Z,46.8
2018-02-17T01:03:04.544Z,46.23
2018-02-17T01:04:13.370Z,45.76
2018-02-17T01:05:22.247Z,46.42
2018-02-17T01:06:31.072Z,46.61
2018-02-17T01:07:39.897Z,46.99
2018-02-17T01:08:48.722Z,46.61
2018-02-17T01:09:57.547Z,45.86
2018-02-17T01:11:06.421Z,45.1
2018-02-17T01:12:15.247Z,43.4
2018-02-17T01:13:24.070Z,42.55
2018-02-17T01:14:32.897Z,42.08
2018-02-17T01:15:41.722Z,41.98
2018-02-17T01:16:50.646Z,42.17
2018-02-17T01:17:59.470Z,41.6
2018-02-17T01:19:08.297Z,41.22
2018-02-17T01:20:17.121Z,41.7
2018-02-17T01:21:25.951Z,42.36
2018-02-17T01:22:34.771Z,41.89
2018-02-17T01:23:43.600Z,42.55
2018-02-17T01:24:52.425Z,42.45
2018-02-17T01:26:01.252Z,41.6
2018-02-17T01:27:10.077Z,42.45
2018-02-17T01:28:18.959Z,42.64
2018-02-17T01:29:28.058Z,42.74
2018-02-17T01:30:36.884Z,42.83
2018-02-17T01:31:46.036Z,43.02
2018-02-17T01:32:54.862Z,43.21
2018-02-17T01:34:03.838Z,43.49
2018-02-17T01:35:12.940Z,43.49
2018-02-17T01:36:21.767Z,43.87
2018-02-17T01:37:30.591Z,43.77
2018-02-17T01:38:39.413Z,44.15
2018-02-17T01:39:48.539Z,43.77
2018-02-17T01:40:57.366Z,43.96
2018-02-17T01:42:06.468Z,43.4
2018-02-17T01:43:15.294Z,44.15
2018-02-17T01:44:24.120Z,44.13
2018-02-17T01:45:32.946Z,43.85
2018-02-17T01:46:41.772Z,43.09
2018-02-17T01:47:50.871Z,43.28
2018-02-17T01:48:59.970Z,42.71
2018-02-17T01:50:08.793Z,43
2018-02-17T01:51:17.619Z,43.21
2018-02-17T01:52:26.446Z,43.19
2018-02-17T01:53:35.269Z,43.19
2018-02-17T01:54:44.369Z,43.4
2018-02-17T01:55:53.195Z,44.23
2018-02-17T01:57:02.168Z,44.04
2018-02-17T01:58:10.994Z,43.85
2018-02-17T01:59:19.821Z,43.19
2018-02-17T02:00:28.924Z,43.47
2018-02-17T02:01:37.748Z,43.66
2018-02-17T02:02:46.772Z,43.21
2018-02-17T02:03:55.596Z,43.95
2018-02-17T02:05:04.420Z,43.76
2018-02-17T02:06:13.244Z,43
2018-02-17T02:07:22.072Z,43.09
2018-02-17T02:08:31.171Z,43.09
2018-02-17T02:09:39.999Z,43.28
2018-02-17T02:10:48.821Z,42.52
2018-02-17T02:11:57.645Z,43
2018-02-17T02:13:06.469Z,43.19
2018-02-17T02:14:15.345Z,43.09
2018-02-17T02:15:24.172Z,43.09
2018-02-17T02:16:32.997Z,43.28
2018-02-17T02:17:41.817Z,43.38
2018-02-17T02:18:50.643Z,43.19
2018-02-17T02:19:59.618Z,42.71
2018-02-17T02:21:08.443Z,43.19
2018-02-17T02:22:17.267Z,42.62
2018-02-17T02:23:26.092Z,42.62
2018-02-17T02:24:34.918Z,42.52
2018-02-17T02:25:43.742Z,42.55
2018-02-17T02:26:52.569Z,43.21
2018-02-17T02:28:01.392Z,43.49
2018-02-17T02:29:10.498Z,43.77
2018-02-17T02:30:19.327Z,44.06
2018-02-17T02:31:28.434Z,43.49
2018-02-17T02:32:37.256Z,42.93
2018-02-17T02:33:46.082Z,43.3
2018-02-17T02:34:54.905Z,43.12
2018-02-17T02:36:03.730Z,42.74
2018-02-17T02:37:12.899Z,42.27
2018-02-17T02:38:21.735Z,41.7
2018-02-17T02:39:30.839Z,41.6
2018-02-17T02:40:39.664Z,40.66
2018-02-17T02:41:48.489Z,40.56
2018-02-17T02:42:57.463Z,39.9
2018-02-17T02:44:06.292Z,39.43
2018-02-17T02:45:15.112Z,39.24
2018-02-17T02:46:23.938Z,38.39
2018-02-17T02:47:32.762Z,38.67
2018-02-17T02:48:42.165Z,38.48
2018-02-17T02:49:50.987Z,38.1
2018-02-17T02:50:59.813Z,37.63
2018-02-17T02:52:08.638Z,37.63
2018-02-17T02:53:17.470Z,37.63
2018-02-17T02:54:26.343Z,37.63
2018-02-17T02:55:35.192Z,37.44
2018-02-17T02:56:43.993Z,37.25
2018-02-17T02:57:52.817Z,36.87
2018-02-17T02:59:01.648Z,36.97
2018-02-17T03:00:10.767Z,36.4
2018-02-17T03:01:19.595Z,36.4
2018-02-17T03:02:28.430Z,36.87
2018-02-17T03:03:37.530Z,36.68
2018-02-17T03:04:46.355Z,36.78
2018-02-17T03:05:55.485Z,37.25
2018-02-17T03:07:04.313Z,36.97
2018-02-17T03:08:13.138Z,36.59
2018-02-17T03:09:21.965Z,36.68
2018-02-17T03:10:30.791Z,36.31
2018-02-17T03:11:40.044Z,36.68
2018-02-17T03:12:48.869Z,36.31
2018-02-17T03:13:57.696Z,36.4
2018-02-17T03:15:06.520Z,36.49
2018-02-17T03:16:15.343Z,36.4
2018-02-17T03:17:24.492Z,37.06
2018-02-17T03:18:33.327Z,36.78
2018-02-17T03:19:42.155Z,36.87
2018-02-17T03:20:50.979Z,36.59
2018-02-17T03:21:59.804Z,36.21
2018-02-17T03:23:08.928Z,36.23
2018-02-17T03:24:17.753Z,36.21
2018-02-17T03:25:26.579Z,36.04
2018-02-17T03:26:35.403Z,35.83
2018-02-17T03:27:44.227Z,35.57
2018-02-17T03:28:53.202Z,35.55
2018-02-17T03:30:02.030Z,35.76
2018-02-17T03:31:11.136Z,36.14
2018-02-17T03:32:19.964Z,35.85
2018-02-17T03:33:28.788Z,35.85
2018-02-17T03:34:37.661Z,36.04
2018-02-17T03:35:46.488Z,36.04
2018-02-17T03:36:55.316Z,35.66
2018-02-17T03:38:04.139Z,35.85
2018-02-17T03:39:12.964Z,36.23
2018-02-17T03:40:21.841Z,35.85
2018-02-17T03:41:30.666Z,35.66
2018-02-17T03:42:39.491Z,36.04
2018-02-17T03:43:48.319Z,36.04
2018-02-17T03:44:57.156Z,35.95
2018-02-17T03:46:06.406Z,35.76
2018-02-17T03:47:15.503Z,35.76
2018-02-17T03:48:24.329Z,35.66
2018-02-17T03:49:33.154Z,35.28
2018-02-17T03:50:42.307Z,35.38
2018-02-17T03:51:51.282Z,35.76
2018-02-17T03:53:00.111Z,34.63
2018-02-17T03:54:09.210Z,34.53
2018-02-17T03:55:18.034Z,34.81
2018-02-17T03:56:26.857Z,34.72
2018-02-17T03:57:35.983Z,34.53
2018-02-17T03:58:44.808Z,34.53
2018-02-17T03:59:53.635Z,34.63
2018-02-17T04:01:02.461Z,34.53
2018-02-17T04:02:11.289Z,34.63
2018-02-17T04:03:20.540Z,34.44
2018-02-17T04:04:29.366Z,34.63
2018-02-17T04:05:38.192Z,34.34
2018-02-17T04:06:47.017Z,34.44
2018-02-17T04:07:55.844Z,34.53
2018-02-17T04:09:04.669Z,34.25
2018-02-17T04:10:13.494Z,33.96
2018-02-17T04:11:22.320Z,33.87
2018-02-17T04:12:31.146Z,33.96
2018-02-17T04:13:40.022Z,34.06
2018-02-17T04:14:49.273Z,34.06
2018-02-17T04:15:58.098Z,34.15
2018-02-17T04:17:06.924Z,34.06
2018-02-17T04:18:15.751Z,33.3
2018-02-17T04:19:24.577Z,32.92
2018-02-17T04:20:33.454Z,32.82
2018-02-17T04:21:42.279Z,32.64
2018-02-17T04:22:51.105Z,32.26
2018-02-17T04:23:59.932Z,31.79
2018-02-17T04:25:08.760Z,32.07
2018-02-17T04:26:17.687Z,31.88
2018-02-17T04:27:26.788Z,31.79
2018-02-17T04:28:35.614Z,31.98
2018-02-17T04:29:44.443Z,32.07
2018-02-17T04:30:53.270Z,32.73
2018-02-17T04:32:02.244Z,32.64
2018-02-17T04:33:11.069Z,31.69
2018-02-17T04:34:20.180Z,32.07
2018-02-17T04:35:29.005Z,31.79
2018-02-17T04:36:37.831Z,32.07
2018-02-17T04:37:46.758Z,31.79
2018-02-17T04:38:55.909Z,31.88
2018-02-17T04:40:04.737Z,31.79
2018-02-17T04:41:13.567Z,31.88
2018-02-17T04:42:22.395Z,32.17
2018-02-17T04:43:31.370Z,31.79
2018-02-17T04:44:40.471Z,31.31
2018-02-17T04:45:49.296Z,31.12
2018-02-17T04:46:58.123Z,31.22
2018-02-17T04:48:06.949Z,31.5
2018-02-17T04:49:15.823Z,31.12
2018-02-17T04:50:24.649Z,31.69
2018-02-17T04:51:33.475Z,32.07
2018-02-17T04:52:42.301Z,31.88
2018-02-17T04:53:51.127Z,31.88
2018-02-17T04:55:00.054Z,31.88
2018-02-17T04:56:08.879Z,31.98
2018-02-17T04:57:17.705Z,31.88
2018-02-17T04:58:26.530Z,31.69
2018-02-17T04:59:35.633Z,32.07
2018-02-17T05:00:44.612Z,32.26
2018-02-17T05:01:53.437Z,31.79
2018-02-17T05:03:02.265Z,31.88
2018-02-17T05:04:11.091Z,31.88
2018-02-17T05:05:19.917Z,31.6
2018-02-17T05:06:28.742Z,31.6
2018-02-17T05:07:37.568Z,31.69
2018-02-17T05:08:46.396Z,32.07
2018-02-17T05:09:55.220Z,31.6
2018-02-17T05:11:04.048Z,31.41
2018-02-17T05:12:12.873Z,32.07
2018-02-17T05:13:21.700Z,31.88
2018-02-17T05:14:30.803Z,32.07
2018-02-17T05:15:39.628Z,32.26
2018-02-17T05:16:48.458Z,32.45
2018-02-17T05:17:57.380Z,32.35
2018-02-17T05:19:06.205Z,31.98
2018-02-17T05:20:15.031Z,31.5
2018-02-17T05:21:23.856Z,32.17
2018-02-17T05:22:32.684Z,32.07
2018-02-17T05:23:41.942Z,32.26
2018-02-17T05:24:50.818Z,31.98
2018-02-17T05:25:59.592Z,32.07
2018-02-17T05:27:08.419Z,32.07
2018-02-17T05:28:17.245Z,32.45
2018-02-17T05:29:26.219Z,31.98
2018-02-17T05:30:35.046Z,32.75
2018-02-17T05:31:43.870Z,32.54
2018-02-17T05:32:52.695Z,32.82
2018-02-17T05:34:01.526Z,32.56
2018-02-17T05:35:10.675Z,32.73
2018-02-17T05:36:19.499Z,32.92
2018-02-17T05:37:28.323Z,32.92
2018-02-17T05:38:37.149Z,32.73
2018-02-17T05:39:45.976Z,33.01
2018-02-17T05:40:54.954Z,33.3
2018-02-17T05:42:03.779Z,33.49
2018-02-17T05:43:12.604Z,33.31
2018-02-17T05:44:21.439Z,33.31
2018-02-17T05:45:30.259Z,33.41
2018-02-17T05:46:39.194Z,33.39
2018-02-17T05:47:48.010Z,33.12
2018-02-17T05:48:56.837Z,33.22
2018-02-17T05:50:05.665Z,33.22
2018-02-17T05:51:14.492Z,33.03
2018-02-17T05:52:23.468Z,33.22
2018-02-17T05:53:32.575Z,33.31
2018-02-17T05:54:41.399Z,33.03
2018-02-17T05:55:50.224Z,32.93
2018-02-17T05:56:59.050Z,33.22
2018-02-17T05:58:07.977Z,33.22
2018-02-17T05:59:16.805Z,33.22
2018-02-17T06:00:25.630Z,33.22
2018-02-17T06:01:34.456Z,33.6
2018-02-17T06:02:43.838Z,33.22
2018-02-17T06:03:52.665Z,33.12
2018-02-17T06:05:01.491Z,33.22
2018-02-17T06:06:10.318Z,33.22
2018-02-17T06:07:19.144Z,33.22
2018-02-17T06:08:27.971Z,33.41
2018-02-17T06:09:36.796Z,33.41
2018-02-17T06:10:45.622Z,33.98
2018-02-17T06:11:54.451Z,34.07
2018-02-17T06:13:03.278Z,33.98
2018-02-17T06:14:12.379Z,33.98
2018-02-17T06:15:21.457Z,33.79
2018-02-17T06:16:30.481Z,33.5
2018-02-17T06:17:39.614Z,33.69
2018-02-17T06:18:48.963Z,33.41
2018-02-17T06:19:58.217Z,33.31
2018-02-17T06:21:07.072Z,33.22
2018-02-17T06:22:16.400Z,33.6
2018-02-17T06:23:25.509Z,34.07
2018-02-17T06:24:34.360Z,33.88
2018-02-17T06:25:46.426Z,34.07
2018-02-17T06:26:55.490Z,34.17
2018-02-17T06:28:04.344Z,33.41
2018-02-17T06:29:13.191Z,33.41
2018-02-17T06:30:22.122Z,34.07
2018-02-17T06:31:31.200Z,33.69
2018-02-17T06:32:40.529Z,33.31
2018-02-17T06:33:49.799Z,33.31
2018-02-17T06:34:58.915Z,34.07
2018-02-17T06:36:08.549Z,34.07
2018-02-17T06:37:17.820Z,33.88
2018-02-17T06:40:06.627Z,33.6
2018-02-17T06:41:15.504Z,34.07
2018-02-17T06:42:24.699Z,33.41
2018-02-17T06:43:33.544Z,33.31
2018-02-17T06:44:43.111Z,33.22
2018-02-17T06:45:52.202Z,33.22
2018-02-17T06:47:01.252Z,33.22
2018-02-17T06:48:10.329Z,33.22
2018-02-17T06:49:19.484Z,33.03
2018-02-17T06:50:28.865Z,33.03
2018-02-17T06:51:37.926Z,32.75
2018-02-17T06:52:47.041Z,32.65
2018-02-17T06:53:56.127Z,32.84
2018-02-17T06:55:05.328Z,32.84
2018-02-17T06:56:14.720Z,32.46
2018-02-17T06:57:24.053Z,32.65
2018-02-17T06:58:33.646Z,32.84
2018-02-17T06:59:42.880Z,32.93
2018-02-17T07:02:30.585Z,32.84
2018-02-17T07:03:39.807Z,32.65
2018-02-17T07:04:48.699Z,32.75
2018-02-17T07:05:58.052Z,33.03
2018-02-17T07:07:06.994Z,32.75
2018-02-17T07:08:16.549Z,32.84
2018-02-17T07:09:25.673Z,32.65
2018-02-17T07:10:34.616Z,32.75
2018-02-17T07:13:22.268Z,33.03
2018-02-17T07:14:31.423Z,32.65
2018-02-17T07:15:40.266Z,31.99
2018-02-17T07:16:49.421Z,32.09
2018-02-17T07:17:58.248Z,31.99
2018-02-17T07:19:07.075Z,32.65
2018-02-17T07:20:15.907Z,32.93
2018-02-17T07:21:24.730Z,32.84
2018-02-17T07:22:33.708Z,32.75
2018-02-17T07:23:42.533Z,33.12
2018-02-17T07:24:51.361Z,32.93
2018-02-17T07:26:00.189Z,32.46
2018-02-17T07:27:09.574Z,32.75
2018-02-17T07:28:18.553Z,32.84
2018-02-17T07:29:27.377Z,32.84
2018-02-17T07:30:36.209Z,32.84
2018-02-17T07:31:45.038Z,32.84
2018-02-17T07:32:53.866Z,32.84
2018-02-17T07:34:02.792Z,32.84
2018-02-17T07:35:11.900Z,32.84
2018-02-17T07:36:20.727Z,32.84
2018-02-17T07:37:29.554Z,32.84
2018-02-17T07:38:38.380Z,32.65
2018-02-17T07:39:47.207Z,32.09
2018-02-17T07:40:56.034Z,31.99
2018-02-17T07:42:04.868Z,31.99
2018-02-17T07:43:13.691Z,32.09
2018-02-17T07:44:22.769Z,31.99
2018-02-17T07:45:31.607Z,31.8
2018-02-17T07:46:40.438Z,31.8
2018-02-17T07:47:49.267Z,31.99
2018-02-17T07:48:58.095Z,32.18
2018-02-17T07:50:06.922Z,32.09
2018-02-17T07:51:15.750Z,32.1
2018-02-17T07:52:24.578Z,31.61
2018-02-17T07:53:33.405Z,32.1
2018-02-17T07:54:42.240Z,31.82
2018-02-17T07:55:51.064Z,31.63
2018-02-17T07:56:59.890Z,31.63
2018-02-17T07:58:08.993Z,32.01
2018-02-17T07:59:17.823Z,31.63
2018-02-17T08:00:26.650Z,31.63
2018-02-17T08:01:35.754Z,31.91
2018-02-17T08:02:44.580Z,32.1
2018-02-17T08:03:53.406Z,31.82
2018-02-17T08:05:02.232Z,31.8
2018-02-17T08:06:11.062Z,31.82
2018-02-17T08:07:19.889Z,31.82
2018-02-17T08:08:28.715Z,31.82
2018-02-17T08:09:37.544Z,31.63
2018-02-17T08:10:46.373Z,32.1
2018-02-17T08:11:55.201Z,32.01
2018-02-17T08:13:04.030Z,31.82
2018-02-17T08:14:12.860Z,31.53
2018-02-17T08:15:21.689Z,31.82
2018-02-17T08:16:30.515Z,31.53
2018-02-17T08:17:39.355Z,31.34
2018-02-17T08:18:48.180Z,31.63
2018-02-17T08:19:57.007Z,31.72
2018-02-17T08:21:06.085Z,32.1
2018-02-17T08:22:14.916Z,31.44
2018-02-17T08:23:23.751Z,31.63
2018-02-17T08:24:32.586Z,31.63
2018-02-17T08:25:41.421Z,31.91
2018-02-17T08:26:50.401Z,31.91
2018-02-17T08:27:59.231Z,32.2
2018-02-17T08:29:08.067Z,31.91
2018-02-17T08:30:16.932Z,32.1
2018-02-17T08:31:26.041Z,31.91
2018-02-17T08:32:35.154Z,31.34
2018-02-17T08:33:44.312Z,31.34
2018-02-17T08:34:53.139Z,31.53
2018-02-17T08:36:01.972Z,32.1
2018-02-17T08:37:10.799Z,32.1
2018-02-17T08:38:19.677Z,31.72
2018-02-17T08:39:28.529Z,31.53
2018-02-17T08:40:37.357Z,31.63
2018-02-17T08:41:46.186Z,31.15
2018-02-17T08:42:55.017Z,30.87
2018-02-17T08:44:04.167Z,30.77
2018-02-17T08:45:13.021Z,30.77
2018-02-17T08:46:21.928Z,30.49
2018-02-17T08:47:30.762Z,30.4
2018-02-17T08:48:39.845Z,30.58
2018-02-17T08:49:48.825Z,30.68
2018-02-17T08:50:57.689Z,30.58
2018-02-17T08:52:06.549Z,30.3
2018-02-17T08:53:15.364Z,30.77
2018-02-17T08:54:24.192Z,30.68
2018-02-17T08:55:33.022Z,30.4
2018-02-17T08:56:41.847Z,30.3
2018-02-17T08:57:50.675Z,30.68
2018-02-17T08:58:59.506Z,30.77
2018-02-17T09:00:08.617Z,30.49
2018-02-17T09:01:17.445Z,30.29
2018-02-17T09:02:26.284Z,30.19
2018-02-17T09:03:35.665Z,30.29
2018-02-17T09:04:44.511Z,29.91
2018-02-17T09:05:53.341Z,30.3
2018-02-17T09:07:02.646Z,30.58
2018-02-17T09:08:11.753Z,30.58
2018-02-17T09:09:20.609Z,31.06
2018-02-17T09:10:29.435Z,31.15
2018-02-17T09:11:38.273Z,30.96
2018-02-17T09:12:47.204Z,31.25
2018-02-17T09:13:56.063Z,30.87
2018-02-17T09:15:05.171Z,31.15
2018-02-17T09:16:14.003Z,31.15
2018-02-17T09:17:22.827Z,30.87
2018-02-17T09:18:31.979Z,31.25
2018-02-17T09:19:40.808Z,31.34
2018-02-17T09:20:49.915Z,30.77
2018-02-17T09:21:58.743Z,30.96
2018-02-17T09:23:07.571Z,31.34
2018-02-17T09:24:16.700Z,31.72
2018-02-17T09:25:25.531Z,31.44
2018-02-17T09:26:34.360Z,31.91
2018-02-17T09:27:43.186Z,31.72
2018-02-17T09:28:52.019Z,32.01
2018-02-17T09:30:01.147Z,31.91
2018-02-17T09:31:10.252Z,32.86
2018-02-17T09:32:19.080Z,33.23
2018-02-17T09:33:27.909Z,32.76
2018-02-17T09:34:36.738Z,33.04
2018-02-17T09:35:45.565Z,32.67
2018-02-17T09:36:54.395Z,32.86
2018-02-17T09:38:03.224Z,33.14
2018-02-17T09:39:12.064Z,32.67
2018-02-17T09:40:20.879Z,33.14
2018-02-17T09:41:29.984Z,33.43
2018-02-17T09:42:38.813Z,34.09
2018-02-17T09:43:47.643Z,34.09
2018-02-17T09:44:56.466Z,33.52
2018-02-17T09:46:05.311Z,33.33
2018-02-17T09:47:14.525Z,32.86
2018-02-17T09:48:23.399Z,33.04
2018-02-17T09:49:32.247Z,33.23
2018-02-17T09:50:41.126Z,33.62
2018-02-17T09:51:50.001Z,34.19
2018-02-17T09:52:58.932Z,34.19
2018-02-17T09:54:07.765Z,34.47
2018-02-17T09:55:16.592Z,34.09
2018-02-17T09:56:25.420Z,34.38
2018-02-17T09:57:34.249Z,34.75
2018-02-17T09:58:43.381Z,34.19
2018-02-17T09:59:52.484Z,35.22
2018-02-17T10:01:01.310Z,35.51
2018-02-17T10:02:10.162Z,35.41
2018-02-17T10:03:19.000Z,34.66
2018-02-17T10:04:27.874Z,34.75
2018-02-17T10:05:36.980Z,34.66
2018-02-17T10:06:45.830Z,35.03
2018-02-17T10:07:54.692Z,34.66
2018-02-17T10:09:03.520Z,35.6
2018-02-17T10:10:12.499Z,35.79
2018-02-17T10:11:21.403Z,35.7
2018-02-17T10:12:30.291Z,35.98
2018-02-17T10:13:39.431Z,36.27
2018-02-17T10:14:48.280Z,37.31
2018-02-17T10:15:57.404Z,37.71
2018-02-17T10:17:06.241Z,39.7
2018-02-17T10:18:15.082Z,39.7
2018-02-17T10:19:23.929Z,40.26
2018-02-17T10:20:32.743Z,41.02
2018-02-17T10:21:41.726Z,42.07
2018-02-17T10:22:50.555Z,42.63
2018-02-17T10:23:59.387Z,43.77
2018-02-17T10:25:08.773Z,43.3
2018-02-17T10:26:17.613Z,44.24
2018-02-17T10:27:26.446Z,44.34
2018-02-17T10:28:35.273Z,46.8
2018-02-17T10:29:44.105Z,45.29
2018-02-17T10:30:52.933Z,46.14
2018-02-17T10:32:01.764Z,46.23
2018-02-17T10:33:10.595Z,46.04
2018-02-17T10:34:19.427Z,47.11
2018-02-17T10:35:28.438Z,49.29
2018-02-17T10:36:37.554Z,49.01
2018-02-17T10:37:46.384Z,49.38
2018-02-17T10:38:55.314Z,49.57
2018-02-17T10:40:04.154Z,50.99
2018-02-17T10:41:12.983Z,50.43
2018-02-17T10:42:21.816Z,50.15
2018-02-17T10:43:30.656Z,50.05
2018-02-17T10:44:39.740Z,49.29
2018-02-17T10:45:48.570Z,51.09
2018-02-17T10:46:57.401Z,50.81
2018-02-17T10:48:06.524Z,51.47
2018-02-17T10:49:15.631Z,53.46
2018-02-17T10:50:24.624Z,53.27
2018-02-17T10:51:33.455Z,53.08
2018-02-17T10:52:42.287Z,53.37
2018-02-17T10:53:51.116Z,52.73
2018-02-17T10:54:59.949Z,53.68
2018-02-17T10:56:08.931Z,53.49
2018-02-17T10:57:17.761Z,53.39
2018-02-17T10:58:26.592Z,54.72
2018-02-17T10:59:35.424Z,55.67
2018-02-17T11:00:44.255Z,56.81
2018-02-17T11:01:53.136Z,57.38
2018-02-17T11:03:01.969Z,56.81
2018-02-17T11:04:11.079Z,58.04
2018-02-17T11:05:20.185Z,57.76
2018-02-17T11:06:29.303Z,60.98
2018-02-17T11:07:38.288Z,60.5
2018-02-17T11:08:47.120Z,61.17
2018-02-17T11:09:55.953Z,60.13
2018-02-17T11:11:04.787Z,61.08
2018-02-17T11:12:13.623Z,61.46
2018-02-17T11:13:22.753Z,62.69
2018-02-17T11:14:31.586Z,62.21
2018-02-17T11:15:40.418Z,62.69
2018-02-17T11:16:49.250Z,62.5
2018-02-17T11:17:58.084Z,64.4
2018-02-17T11:19:06.967Z,62.97
2018-02-17T11:20:15.799Z,63.26
2018-02-17T11:21:24.631Z,64.01
2018-02-17T11:22:33.464Z,64.43
2018-02-17T11:23:42.301Z,64.11
2018-02-17T11:24:51.558Z,65.19
2018-02-17T11:26:00.391Z,65.82
2018-02-17T11:27:09.223Z,66.04
2018-02-17T11:28:18.055Z,66.23
2018-02-17T11:29:26.888Z,66.23
2018-02-17T11:30:35.995Z,66.61
2018-02-17T11:31:44.830Z,67.08
2018-02-17T11:32:53.936Z,67.56
2018-02-17T11:34:03.042Z,67.37
2018-02-17T11:35:11.873Z,68.89
2018-02-17T11:36:20.805Z,68
2018-02-17T11:37:29.643Z,68.19
2018-02-17T11:38:38.475Z,68.38
2018-02-17T11:39:47.582Z,69.42
2018-02-17T11:40:56.418Z,69.55
2018-02-17T11:42:05.554Z,68.85
2018-02-17T11:43:14.382Z,68.38
2018-02-17T11:44:23.216Z,69.65
2018-02-17T11:45:32.603Z,69.36
2018-02-17T11:46:41.436Z,69.52
2018-02-17T11:47:50.266Z,68.95
2018-02-17T11:48:59.102Z,68.85
2018-02-17T11:50:07.931Z,69.33
2018-02-17T11:51:16.763Z,69.23
2018-02-17T11:52:25.601Z,69.65
2018-02-17T11:53:35.010Z,70.69
2018-02-17T11:54:43.844Z,70.03
2018-02-17T11:55:52.672Z,70.12
2018-02-17T11:57:01.504Z,70.03
2018-02-17T11:58:10.336Z,71.07
2018-02-17T11:59:19.220Z,70.5
2018-02-17T12:00:28.053Z,70.21
2018-02-17T12:01:36.887Z,70.98
2018-02-17T12:02:45.720Z,72.11
2018-02-17T12:03:54.552Z,72.49
2018-02-17T12:05:03.485Z,72.02
2018-02-17T12:06:12.320Z,72.59
2018-02-17T12:07:21.154Z,73.63
2018-02-17T12:08:29.982Z,72.78
2018-02-17T12:09:38.815Z,73.63
2018-02-17T12:10:47.899Z,73.35
2018-02-17T12:11:56.733Z,72.59
2018-02-17T12:13:05.566Z,72.11
2018-02-17T12:14:14.402Z,73.07
2018-02-17T12:15:23.272Z,75.81
2018-02-17T12:16:32.070Z,76.2
2018-02-17T12:17:40.903Z,76.2
2018-02-17T12:18:49.740Z,75.72
2018-02-17T12:19:58.570Z,75.81
2018-02-17T12:21:07.678Z,75.43
2018-02-17T12:22:16.518Z,76.2
2018-02-17T12:23:25.350Z,76.57
2018-02-17T12:24:34.191Z,75.43
2018-02-17T12:25:43.025Z,76.2
2018-02-17T12:26:51.859Z,75.43
2018-02-17T12:28:01.117Z,76.1
2018-02-17T12:29:09.954Z,76.95
2018-02-17T12:30:18.789Z,76.67
2018-02-17T12:31:27.617Z,75.62
2018-02-17T12:32:36.451Z,76.57
2018-02-17T12:33:45.282Z,75.53
2018-02-17T12:34:54.120Z,76.39
2018-02-17T12:36:02.950Z,76.29
2018-02-17T12:37:11.786Z,77.9
2018-02-17T12:38:20.617Z,77.14
2018-02-17T12:39:29.600Z,77.71
2018-02-17T12:40:38.436Z,77.43
2018-02-17T12:41:47.271Z,77.43
2018-02-17T12:42:56.105Z,77.05
2018-02-17T12:44:04.938Z,76.95
2018-02-17T12:45:14.030Z,77.52
2018-02-17T12:46:22.861Z,78.13
2018-02-17T12:47:31.694Z,77.47
2018-02-17T12:48:40.528Z,78.13
2018-02-17T12:49:49.398Z,79.65
2018-02-17T12:50:58.197Z,79.27
2018-02-17T12:52:07.027Z,79.08
2018-02-17T12:53:15.860Z,79.17
2018-02-17T12:54:24.694Z,78.89
2018-02-17T12:55:33.527Z,79.55
2018-02-17T12:56:42.461Z,79.17
2018-02-17T12:57:51.296Z,80.41
2018-02-17T12:59:00.129Z,80.32
2018-02-17T13:00:08.964Z,81.07
2018-02-17T13:01:17.797Z,82.16
2018-02-17T13:02:26.680Z,82.31
2018-02-17T13:03:35.514Z,81.93
2018-02-17T13:04:44.348Z,82.69
2018-02-17T13:05:53.182Z,81.93
2018-02-17T13:07:02.016Z,81.74
2018-02-17T13:08:10.849Z,81.84
2018-02-17T13:09:19.682Z,82.59
2018-02-17T13:10:28.567Z,81.93
2018-02-17T13:11:37.677Z,82.12
2018-02-17T13:12:46.511Z,81.93
2018-02-17T13:13:55.453Z,82.21
2018-02-17T13:15:04.284Z,82.59
2018-02-17T13:16:13.120Z,81.74
2018-02-17T13:17:22.229Z,82.59
2018-02-17T13:18:31.344Z,81.93
2018-02-17T13:19:40.328Z,82.5
2018-02-17T13:20:49.164Z,81.93
2018-02-17T13:21:57.998Z,83.07
2018-02-17T13:23:06.832Z,82.69
2018-02-17T13:24:15.668Z,83.11
2018-02-17T13:25:24.501Z,82.35
2018-02-17T13:26:33.336Z,83.49
2018-02-17T13:27:42.171Z,83.3
2018-02-17T13:28:51.007Z,83.11
2018-02-17T13:29:59.845Z,83.39
2018-02-17T13:31:08.744Z,83.97
2018-02-17T13:32:17.590Z,83.49
2018-02-17T13:33:26.440Z,84.53
2018-02-17T13:34:35.278Z,84.34
2018-02-17T13:35:44.116Z,84.72
2018-02-17T13:36:53.103Z,85.39
2018-02-17T13:38:03.046Z,84.63
2018-02-17T13:39:11.887Z,85.49
2018-02-17T13:40:21.001Z,86.53
2018-02-17T13:41:29.843Z,86.15
2018-02-17T13:42:38.688Z,85.96
2018-02-17T13:43:47.530Z,87.62
2018-02-17T13:44:56.365Z,87.24
2018-02-17T13:46:05.202Z,88.09
2018-02-17T13:47:14.037Z,88
2018-02-17T13:48:23.022Z,87.95
2018-02-17T13:49:31.859Z,87.86
2018-02-17T13:50:40.694Z,88.43
2018-02-17T13:51:49.817Z,88.57
2018-02-17T13:52:58.931Z,88.05
2018-02-17T13:54:08.055Z,88.95
2018-02-17T13:55:16.904Z,87.95
2018-02-17T13:56:25.742Z,88.76
2018-02-17T13:57:34.577Z,88.38
2018-02-17T13:58:43.410Z,88
2018-02-17T13:59:52.553Z,88.95
2018-02-17T14:01:01.386Z,89.33
2018-02-17T14:02:10.224Z,89.14
2018-02-17T14:03:19.053Z,88.57
2018-02-17T14:04:27.885Z,89.52
2018-02-17T14:05:36.872Z,89.52
2018-02-17T14:06:45.708Z,89.61
2018-02-17T14:07:54.575Z,89.9
2018-02-17T14:09:03.408Z,89.42
2018-02-17T14:10:12.243Z,89.33
2018-02-17T14:11:21.379Z,90
2018-02-17T14:12:30.213Z,90.52
2018-02-17T14:13:39.049Z,89.85
2018-02-17T14:14:47.898Z,90.42
2018-02-17T14:15:56.733Z,90.28
2018-02-17T14:17:05.837Z,90.61
2018-02-17T14:18:14.809Z,91.18
2018-02-17T14:19:23.866Z,90.33
2018-02-17T14:20:32.800Z,91.28
2018-02-17T14:21:41.632Z,90.61
2018-02-17T14:22:50.572Z,91.37
2018-02-17T14:23:59.402Z,91.8
2018-02-17T14:25:08.241Z,91.32
2018-02-17T14:26:17.077Z,91.42
2018-02-17T14:27:26.257Z,91.22
2018-02-17T14:28:35.242Z,91.99
2018-02-17T14:29:44.358Z,91.8
2018-02-17T14:30:53.193Z,91.99
2018-02-17T14:32:02.036Z,91.89
2018-02-17T14:33:10.873Z,92.08
2018-02-17T14:34:20.010Z,92.46
2018-02-17T14:35:29.124Z,92.56
2018-02-17T14:36:37.959Z,92.18
2018-02-17T14:37:46.793Z,92.27
2018-02-17T14:38:55.629Z,92.36
2018-02-17T14:40:04.635Z,93.18
2018-02-17T14:41:13.455Z,92.99
2018-02-17T14:42:22.290Z,93.27
2018-02-17T14:43:31.125Z,92.99
2018-02-17T14:44:39.961Z,93.08
2018-02-17T14:45:48.823Z,93.55
2018-02-17T14:46:57.708Z,93.27
2018-02-17T14:48:06.549Z,92.89
2018-02-17T14:49:15.384Z,92.22
2018-02-17T14:50:24.576Z,92.89
2018-02-17T14:51:33.570Z,92.89
2018-02-17T14:52:42.406Z,93.08
2018-02-17T14:53:51.240Z,93.08
2018-02-17T14:55:00.080Z,93.37
2018-02-17T14:56:08.921Z,92.89